createdAt,value
2023-01-04T00:00:50.027Z,2.10
2023-01-04T00:03:16.635Z,1.57
2023-01-04T00:05:43.048Z,1.77
2023-01-04T00:08:09.500Z,1.80
2023-01-04T00:10:35.811Z,2.00
2023-01-04T00:13:02.237Z,1.83
2023-01-04T00:15:28.598Z,1.47
2023-01-04T00:17:55.126Z,1.30
2023-01-04T00:20:21.532Z,1.60
2023-01-04T00:22:47.844Z,1.53
2023-01-04T00:25:14.327Z,1.40
2023-01-04T00:27:40.708Z,1.60
2023-01-04T00:30:07.443Z,1.50
2023-01-04T00:32:33.777Z,1.07
2023-01-04T00:35:00.166Z,1.20
2023-01-04T00:37:26.531Z,1.40
2023-01-04T00:39:52.950Z,1.70
2023-01-04T00:42:19.271Z,1.40
2023-01-04T00:44:45.672Z,1.30
2023-01-04T00:47:11.989Z,1.50
2023-01-04T00:49:38.295Z,1.30
2023-01-04T00:52:04.755Z,1.87
2023-01-04T00:54:31.135Z,1.70
2023-01-04T00:56:57.896Z,2.23
2023-01-04T00:59:24.313Z,1.80
2023-01-04T01:01:51.318Z,2.17
2023-01-04T01:04:18.949Z,1.90
2023-01-04T01:06:45.652Z,2.33
2023-01-04T01:09:12.213Z,1.47
2023-01-04T01:11:39.666Z,1.57
2023-01-04T01:14:06.669Z,2.17
2023-01-04T01:19:19.561Z,1.87
2023-01-04T01:21:45.855Z,1.53
2023-01-04T01:24:16.840Z,1.23
2023-01-04T01:26:43.163Z,1.97
2023-01-04T01:29:09.497Z,1.40
2023-01-04T01:31:35.869Z,2.20
2023-01-04T01:34:02.517Z,1.73
2023-01-04T01:36:28.928Z,2.37
2023-01-04T01:38:55.392Z,1.87
2023-01-04T01:41:23.166Z,2.40
2023-01-04T01:43:50.048Z,1.70
2023-01-04T01:46:18.153Z,2.50
2023-01-04T01:48:44.790Z,2.30
2023-01-04T01:51:11.429Z,1.40
2023-01-04T01:53:39.946Z,2.03
2023-01-04T01:56:07.406Z,2.83
2023-01-04T01:58:35.978Z,3.23
2023-01-04T02:01:02.841Z,2.90
2023-01-04T02:03:35.172Z,2.70
2023-01-04T02:06:02.357Z,2.50
2023-01-04T02:08:29.914Z,2.80
2023-01-04T02:10:56.353Z,2.33
2023-01-04T02:13:47.501Z,3.10
2023-01-04T02:16:19.903Z,3.37
2023-01-04T02:18:51.966Z,3.10
2023-01-04T02:21:23.316Z,2.80
2023-01-04T02:23:52.679Z,3.07
2023-01-04T02:26:42.005Z,2.20
2023-01-04T02:29:27.253Z,2.87
2023-01-04T02:32:16.834Z,3.30
2023-01-04T02:34:58.635Z,2.57
2023-01-04T02:37:45.397Z,2.30
2023-01-04T02:40:14.765Z,1.43
2023-01-04T02:43:02.887Z,2.50
2023-01-04T02:45:31.227Z,2.60
2023-01-04T02:48:20.004Z,1.43
2023-01-04T02:50:57.766Z,1.57
2023-01-04T02:53:24.275Z,1.13
2023-01-04T02:55:56.443Z,1.70
2023-01-04T02:58:52.202Z,1.70
2023-01-04T03:01:43.389Z,2.17
2023-01-04T03:04:34.764Z,1.30
2023-01-04T03:07:07.819Z,1.40
2023-01-04T03:09:35.543Z,2.30
2023-01-04T03:12:23.692Z,2.80
2023-01-04T03:15:01.750Z,1.97
2023-01-04T03:17:31.755Z,1.93
2023-01-04T03:19:58.700Z,2.20
2023-01-04T03:22:51.551Z,2.40
2023-01-04T03:25:37.897Z,1.93
2023-01-04T03:28:24.591Z,3.23
2023-01-04T03:31:11.982Z,3.13
2023-01-04T03:33:57.299Z,3.07
2023-01-04T03:36:34.662Z,2.60
2023-01-04T03:39:36.435Z,2.80
2023-01-04T03:42:21.268Z,1.67
2023-01-04T03:45:18.302Z,3.07
2023-01-04T03:48:06.145Z,3.00
2023-01-04T03:50:38.899Z,2.83
2023-01-04T03:53:06.627Z,3.30
2023-01-04T03:55:34.391Z,2.17
2023-01-04T03:58:01.555Z,2.67
2023-01-04T04:00:28.287Z,2.33
2023-01-04T04:03:06.993Z,2.47
2023-01-04T04:05:52.790Z,2.40
2023-01-04T04:08:31.676Z,3.00
2023-01-04T04:11:19.497Z,1.70
2023-01-04T04:13:46.832Z,1.90
2023-01-04T04:16:13.293Z,2.73
2023-01-04T04:18:39.640Z,1.83
2023-01-04T04:21:06.117Z,1.67
2023-01-04T04:23:32.509Z,1.63
2023-01-04T04:25:58.929Z,1.10
2023-01-04T04:28:25.295Z,2.07
2023-01-04T04:30:52.219Z,1.83
2023-01-04T04:33:18.637Z,2.00
2023-01-04T04:35:45.035Z,1.30
2023-01-04T04:38:11.383Z,1.07
2023-01-04T04:40:59.615Z,1.80
2023-01-04T04:43:25.954Z,1.80
2023-01-04T04:45:52.342Z,1.50
2023-01-04T04:48:18.777Z,1.23
2023-01-04T04:50:45.187Z,0.97
2023-01-04T04:53:11.512Z,0.80
2023-01-04T04:55:37.824Z,0.63
2023-01-04T04:58:04.153Z,0.90
2023-01-04T05:00:30.498Z,1.37
2023-01-04T05:03:00.309Z,1.50
2023-01-04T05:05:26.967Z,1.20
2023-01-04T05:07:53.303Z,0.70
2023-01-04T05:10:19.720Z,1.03
2023-01-04T05:13:01.410Z,0.97
2023-01-04T05:15:29.123Z,0.77
2023-01-04T05:17:55.518Z,0.53
2023-01-04T05:20:21.939Z,0.53
2023-01-04T05:22:48.427Z,0.40
2023-01-04T05:25:15.316Z,0.90
2023-01-04T05:27:41.720Z,0.90
2023-01-04T05:30:28.289Z,1.10
2023-01-04T05:32:54.656Z,1.20
2023-01-04T05:35:20.994Z,1.00
2023-01-04T05:37:47.325Z,1.13
2023-01-04T05:40:13.838Z,1.67
2023-01-04T05:42:40.185Z,0.90
2023-01-04T05:45:06.789Z,1.40
2023-01-04T05:47:33.545Z,1.50
2023-01-04T05:49:59.909Z,1.00
2023-01-04T05:52:26.761Z,1.13
2023-01-04T05:54:53.104Z,1.40
2023-01-04T05:57:19.427Z,1.50
2023-01-04T05:59:45.777Z,1.60
2023-01-04T06:02:19.302Z,1.20
2023-01-04T06:04:45.967Z,1.97
2023-01-04T06:07:12.795Z,2.07
2023-01-04T06:09:39.226Z,1.30
2023-01-04T06:12:05.746Z,1.53
2023-01-04T06:14:32.532Z,1.73
2023-01-04T06:16:59.156Z,1.57
2023-01-04T06:19:25.852Z,2.07
2023-01-04T06:21:52.281Z,1.53
2023-01-04T06:24:18.839Z,1.70
2023-01-04T06:26:45.273Z,2.00
2023-01-04T06:29:11.669Z,1.67
2023-01-04T06:31:38.142Z,1.20
2023-01-04T06:34:04.533Z,1.00
2023-01-04T06:36:30.986Z,1.33
2023-01-04T06:39:00.734Z,1.83
2023-01-04T06:41:27.061Z,1.40
2023-01-04T06:43:53.513Z,2.00
2023-01-04T06:46:20.218Z,1.30
2023-01-04T06:48:46.693Z,2.13
2023-01-04T06:51:13.158Z,2.17
2023-01-04T06:53:39.537Z,2.20
2023-01-04T06:56:06.696Z,2.27
2023-01-04T06:58:32.986Z,2.30
2023-01-04T07:00:59.347Z,1.67
2023-01-04T07:03:25.908Z,2.20
2023-01-04T07:05:52.379Z,1.80
2023-01-04T07:08:18.684Z,1.77
2023-01-04T07:10:45.241Z,1.53
2023-01-04T07:13:11.954Z,2.47
2023-01-04T07:15:40.838Z,2.47
2023-01-04T07:18:08.575Z,2.00
2023-01-04T07:20:35.215Z,1.53
2023-01-04T07:23:01.619Z,1.53
2023-01-04T07:25:27.937Z,1.50
2023-01-04T07:27:54.961Z,1.80
2023-01-04T07:30:22.112Z,1.60
2023-01-04T07:32:48.719Z,1.50
2023-01-04T07:35:15.148Z,1.80
2023-01-04T07:37:42.552Z,1.47
2023-01-04T07:40:09.130Z,1.37
2023-01-04T07:42:36.070Z,2.30
2023-01-04T07:45:02.758Z,1.70
2023-01-04T07:47:29.129Z,1.13
2023-01-04T07:49:55.487Z,1.80
2023-01-04T07:52:21.863Z,1.60
2023-01-04T07:54:48.356Z,1.67
2023-01-04T07:57:14.800Z,1.17
2023-01-04T07:59:41.145Z,1.70
2023-01-04T08:02:10.216Z,1.57
2023-01-04T08:04:36.826Z,2.23
2023-01-04T08:07:03.254Z,2.00
2023-01-04T08:09:29.755Z,1.20
2023-01-04T08:11:56.179Z,2.50
2023-01-04T08:14:23.410Z,3.03
2023-01-04T08:16:49.861Z,2.03
2023-01-04T08:19:20.477Z,2.60
2023-01-04T08:21:47.581Z,2.23
2023-01-04T08:24:14.973Z,2.43
2023-01-04T08:26:41.647Z,2.73
2023-01-04T08:29:08.011Z,2.60
2023-01-04T08:31:34.537Z,2.00
2023-01-04T08:34:02.079Z,1.60
2023-01-04T08:36:29.419Z,1.90
2023-01-04T08:38:59.830Z,3.53
2023-01-04T08:41:56.791Z,2.57
2023-01-04T08:44:14.380Z,2.93
2023-01-04T08:46:40.925Z,2.80
2023-01-04T08:49:07.363Z,3.90
2023-01-04T08:51:34.151Z,3.00
2023-01-04T08:54:00.439Z,4.60
2023-01-04T08:56:26.928Z,4.33
2023-01-04T08:58:53.289Z,2.10
2023-01-04T09:01:19.696Z,4.97
2023-01-04T09:03:46.196Z,3.60
2023-01-04T09:06:13.872Z,3.67
2023-01-04T09:08:41.036Z,2.33
2023-01-04T09:11:07.366Z,3.07
2023-01-04T09:13:34.516Z,3.63
2023-01-04T09:16:02.033Z,3.47
2023-01-04T09:18:32.794Z,2.87
2023-01-04T09:21:01.448Z,3.47
2023-01-04T09:23:28.965Z,3.37
2023-01-04T09:25:55.301Z,3.83
2023-01-04T09:28:21.642Z,2.27
2023-01-04T09:30:48.026Z,3.30
2023-01-04T09:33:14.334Z,4.30
2023-01-04T09:35:40.753Z,3.47
2023-01-04T09:38:07.095Z,2.80
2023-01-04T09:40:36.422Z,2.70
2023-01-04T09:43:21.249Z,3.30
2023-01-04T09:45:49.724Z,3.17
2023-01-04T09:48:25.155Z,4.40
2023-01-04T09:51:00.806Z,3.23
2023-01-04T09:53:27.119Z,3.20
2023-01-04T09:55:55.020Z,3.87
2023-01-04T09:58:27.508Z,5.53
2023-01-04T10:01:00.127Z,2.63
2023-01-04T10:03:34.684Z,1.80
2023-01-04T10:06:01.933Z,2.73
2023-01-04T10:08:31.099Z,3.93
2023-01-04T10:11:00.181Z,2.47
2023-01-04T10:13:45.541Z,2.07
2023-01-04T10:16:30.362Z,2.50
2023-01-04T10:21:08.498Z,3.27
2023-01-04T10:22:25.012Z,3.07
2023-01-04T10:25:00.362Z,2.90
2023-01-04T10:27:40.855Z,2.30
2023-01-04T10:30:18.198Z,2.00
2023-01-04T10:32:45.770Z,1.90
2023-01-04T10:35:15.211Z,1.67
2023-01-04T10:37:41.803Z,2.17
2023-01-04T10:40:15.479Z,1.70
2023-01-04T10:43:02.109Z,1.63
2023-01-04T10:45:34.768Z,1.33
2023-01-04T10:48:13.258Z,1.83
2023-01-04T10:50:42.782Z,1.40
2023-01-04T10:53:20.726Z,1.33
2023-01-04T10:56:25.303Z,0.90
2023-01-04T10:58:44.398Z,1.63
2023-01-04T11:01:31.919Z,0.90
2023-01-04T11:04:17.360Z,1.60
2023-01-04T11:06:52.551Z,1.77
2023-01-04T11:09:26.974Z,1.40
2023-01-04T11:11:57.042Z,2.20
2023-01-04T11:14:25.308Z,1.40
2023-01-04T11:16:54.217Z,2.27
2023-01-04T11:19:20.716Z,1.93
2023-01-04T11:21:52.703Z,1.60
2023-01-04T11:24:34.655Z,2.00
2023-01-04T11:27:06.203Z,2.00
2023-01-04T11:29:40.534Z,2.57
2023-01-04T11:32:27.750Z,2.07
2023-01-04T11:34:56.901Z,2.50
2023-01-04T11:37:23.208Z,2.03
2023-01-04T11:39:49.571Z,2.33
2023-01-04T11:42:22.069Z,1.60
2023-01-04T11:44:58.593Z,2.03
2023-01-04T11:47:28.320Z,2.17
2023-01-04T11:49:56.421Z,1.70
2023-01-04T11:52:25.616Z,1.77
2023-01-04T11:54:52.009Z,2.57
2023-01-04T11:57:19.131Z,1.87
2023-01-04T11:59:45.548Z,2.87
2023-01-04T12:02:50.586Z,3.17
2023-01-04T12:05:15.883Z,2.10
2023-01-04T12:07:42.412Z,3.47
2023-01-04T12:10:21.399Z,2.67
2023-01-04T12:12:48.224Z,2.47
2023-01-04T12:15:19.288Z,2.03
2023-01-04T12:18:14.845Z,3.23
2023-01-04T12:20:41.159Z,2.33
2023-01-04T12:23:08.948Z,2.07
2023-01-04T12:25:35.218Z,2.33
2023-01-04T12:28:01.730Z,1.90
2023-01-04T12:30:36.943Z,1.90
2023-01-04T12:33:22.154Z,2.10
2023-01-04T12:36:05.044Z,2.90
2023-01-04T12:38:50.099Z,1.70
2023-01-04T12:41:16.520Z,1.40
2023-01-04T12:43:46.892Z,1.63
2023-01-04T12:46:52.547Z,2.03
2023-01-04T12:49:24.791Z,2.10
2023-01-04T12:54:58.666Z,1.87
2023-01-04T12:57:28.328Z,1.97
2023-01-04T12:59:57.456Z,2.07
2023-01-04T13:02:25.065Z,1.13
2023-01-04T13:05:09.666Z,1.50
2023-01-04T13:07:46.365Z,2.00
2023-01-04T13:10:32.093Z,1.53
2023-01-04T13:13:13.494Z,2.17
2023-01-04T13:15:42.937Z,1.73
2023-01-04T13:18:28.155Z,1.77
2023-01-04T13:20:55.380Z,2.33
2023-01-04T13:23:22.341Z,1.83
2023-01-04T13:25:48.781Z,1.93
2023-01-04T13:28:18.749Z,2.67
2023-01-04T13:30:45.610Z,2.10
2023-01-04T13:33:28.160Z,2.67
2023-01-04T13:36:10.363Z,1.73
2023-01-04T13:38:39.326Z,2.40
2023-01-04T13:41:19.625Z,1.37
2023-01-04T13:44:03.112Z,2.30
2023-01-04T13:46:29.650Z,1.63
2023-01-04T13:48:59.998Z,1.73
2023-01-04T13:51:36.437Z,1.80
2023-01-04T13:54:04.768Z,2.33
2023-01-04T13:56:32.410Z,1.77
2023-01-04T13:58:59.044Z,2.20
2023-01-04T14:01:32.729Z,2.07
2023-01-04T14:04:00.823Z,1.90
2023-01-04T14:06:36.390Z,1.50
2023-01-04T14:09:22.848Z,2.00
2023-01-04T14:12:06.680Z,2.53
2023-01-04T14:14:39.941Z,1.53
2023-01-04T14:17:12.484Z,2.40
2023-01-04T14:19:43.452Z,2.10
2023-01-04T14:22:19.704Z,2.00
2023-01-04T14:27:40.621Z,2.30
2023-01-04T14:30:16.103Z,2.03
2023-01-04T14:32:42.490Z,1.97
2023-01-04T14:35:13.353Z,2.03
2023-01-04T14:37:40.871Z,2.30
2023-01-04T14:40:23.697Z,1.73
2023-01-04T14:42:50.139Z,2.13
2023-01-04T14:45:16.542Z,2.13
2023-01-04T14:47:43.025Z,2.53
2023-01-04T14:50:09.646Z,1.90
2023-01-04T14:52:36.046Z,2.20
2023-01-04T14:55:04.928Z,1.87
2023-01-04T14:57:33.271Z,3.23
2023-01-04T14:59:59.615Z,2.97
2023-01-04T15:02:27.174Z,3.03
2023-01-04T15:04:53.748Z,3.33
2023-01-04T15:07:37.988Z,2.83
2023-01-04T15:10:04.969Z,1.90
2023-01-04T15:12:31.279Z,2.27
2023-01-04T15:14:57.594Z,3.03
2023-01-04T15:17:23.952Z,3.23
2023-01-04T15:19:50.395Z,2.57
2023-01-04T15:22:16.797Z,2.83
2023-01-04T15:24:43.243Z,2.57
2023-01-04T15:27:09.758Z,3.00
2023-01-04T15:29:36.251Z,2.87
2023-01-04T15:32:02.667Z,2.33
2023-01-04T15:34:29.183Z,3.50
2023-01-04T15:36:55.496Z,2.60
2023-01-04T15:39:22.110Z,3.70
2023-01-04T15:42:08.271Z,2.70
2023-01-04T15:44:34.652Z,2.67
2023-01-04T15:47:01.013Z,3.37
2023-01-04T15:49:28.889Z,3.80
2023-01-04T15:51:55.320Z,2.50
2023-01-04T15:54:24.242Z,2.90
2023-01-04T15:56:50.557Z,3.30
2023-01-04T15:59:17.409Z,3.20
2023-01-04T16:01:43.760Z,3.20
2023-01-04T16:04:11.650Z,3.50
2023-01-04T16:06:38.180Z,3.10
2023-01-04T16:09:05.561Z,4.00
2023-01-04T16:11:32.414Z,2.40
2023-01-04T16:13:58.875Z,3.50
2023-01-04T16:16:27.726Z,3.63
2023-01-04T16:18:55.338Z,3.87
2023-01-04T16:21:26.876Z,2.87
2023-01-04T16:23:58.415Z,3.57
2023-01-04T16:26:28.367Z,3.20
2023-01-04T16:28:55.080Z,3.13
2023-01-04T16:31:23.141Z,3.13
2023-01-04T16:33:53.534Z,3.97
2023-01-04T16:36:19.975Z,4.10
2023-01-04T16:38:46.518Z,2.93
2023-01-04T16:41:14.337Z,2.80
2023-01-04T16:43:44.878Z,3.97
2023-01-04T16:46:14.436Z,4.23
2023-01-04T16:48:41.459Z,3.90
2023-01-04T16:51:08.571Z,4.57
2023-01-04T16:53:35.601Z,4.40
2023-01-04T16:56:09.444Z,3.43
2023-01-04T16:58:35.917Z,3.97
2023-01-04T17:01:09.188Z,5.17
2023-01-04T17:03:35.978Z,4.67
2023-01-04T17:06:06.448Z,3.87
2023-01-04T17:08:32.885Z,3.73
2023-01-04T17:11:38.610Z,4.07
2023-01-04T17:13:51.099Z,3.43
2023-01-04T17:16:17.636Z,4.80
2023-01-04T17:18:44.410Z,3.97
2023-01-04T17:21:33.290Z,4.40
2023-01-04T17:23:58.926Z,4.63
2023-01-04T17:26:26.610Z,4.83
2023-01-04T17:28:55.782Z,4.27
2023-01-04T17:31:23.482Z,5.17
2023-01-04T17:33:50.132Z,4.57
2023-01-04T17:36:18.027Z,4.77
2023-01-04T17:38:45.222Z,4.83
2023-01-04T17:41:15.976Z,5.47
2023-01-04T17:43:43.225Z,4.80
2023-01-04T17:46:10.898Z,5.83
2023-01-04T17:48:37.628Z,6.23
2023-01-04T17:51:05.033Z,5.07
2023-01-04T17:53:31.420Z,4.90
2023-01-04T17:56:01.406Z,5.40
2023-01-04T17:58:28.231Z,4.03
2023-01-04T18:00:54.615Z,4.67
2023-01-04T18:03:20.971Z,4.93
2023-01-04T18:05:51.930Z,3.67
2023-01-04T18:08:25.391Z,5.40
2023-01-04T18:11:07.314Z,5.03
2023-01-04T18:13:35.226Z,6.23
2023-01-04T18:16:23.079Z,5.13
2023-01-04T18:18:48.816Z,5.93
2023-01-04T18:21:28.455Z,3.73
2023-01-04T18:26:36.753Z,5.43
2023-01-04T18:29:08.180Z,7.17
2023-01-04T18:31:34.833Z,5.30
2023-01-04T18:34:01.283Z,6.57
2023-01-04T18:36:31.984Z,4.90
2023-01-04T18:38:58.992Z,5.73
2023-01-04T18:41:27.196Z,5.70
2023-01-04T18:44:13.319Z,4.33
2023-01-04T18:46:41.501Z,4.70
2023-01-04T18:49:08.002Z,5.80
2023-01-04T18:51:37.209Z,5.13
2023-01-04T18:54:03.534Z,5.97
2023-01-04T18:56:29.945Z,4.60
2023-01-04T18:58:56.259Z,4.80
2023-01-04T19:01:23.284Z,5.03
2023-01-04T19:03:49.725Z,5.33
2023-01-04T19:06:17.776Z,4.47
2023-01-04T19:08:44.479Z,4.63
2023-01-04T19:11:11.219Z,4.90
2023-01-04T19:13:38.136Z,4.27
2023-01-04T19:16:08.450Z,4.03
2023-01-04T19:18:34.924Z,3.83
2023-01-04T19:21:01.575Z,5.10
2023-01-04T19:23:27.885Z,3.83
2023-01-04T19:25:54.465Z,4.97
2023-01-04T19:28:21.062Z,5.60
2023-01-04T19:30:47.452Z,6.07
2023-01-04T19:33:14.070Z,5.37
2023-01-04T19:35:44.334Z,5.33
2023-01-04T19:38:10.905Z,4.93
2023-01-04T19:40:37.301Z,5.10
2023-01-04T19:43:04.191Z,5.90
2023-01-04T19:45:30.532Z,5.23
2023-01-04T19:47:57.020Z,4.30
2023-01-04T19:50:24.237Z,5.53
2023-01-04T19:52:50.705Z,5.13
2023-01-04T19:55:17.128Z,5.27
2023-01-04T19:57:43.510Z,5.47
2023-01-04T20:00:12.286Z,5.40
2023-01-04T20:02:38.951Z,5.33
2023-01-04T20:05:07.176Z,6.40
2023-01-04T20:07:33.583Z,5.07
2023-01-04T20:09:59.907Z,5.80
2023-01-04T20:12:26.254Z,6.93
2023-01-04T20:14:52.701Z,6.10
2023-01-04T20:17:19.052Z,6.77
2023-01-04T20:19:46.427Z,5.87
2023-01-04T20:22:12.925Z,5.63
2023-01-04T20:24:39.344Z,6.43
2023-01-04T20:27:05.781Z,5.33
2023-01-04T20:29:33.290Z,6.27
2023-01-04T20:32:00.751Z,4.90
2023-01-04T20:34:27.298Z,5.13
2023-01-04T20:36:53.604Z,6.83
2023-01-04T20:39:19.988Z,5.20
2023-01-04T20:42:04.856Z,4.87
2023-01-04T20:44:31.252Z,5.67
2023-01-04T20:46:57.646Z,5.17
2023-01-04T20:49:24.108Z,5.77
2023-01-04T20:51:50.469Z,5.60
2023-01-04T20:54:16.797Z,4.63
2023-01-04T20:56:43.243Z,6.23
2023-01-04T20:59:09.564Z,4.23
2023-01-04T21:01:36.772Z,4.27
2023-01-04T21:04:03.301Z,4.93
2023-01-04T21:06:30.660Z,5.07
2023-01-04T21:08:57.264Z,4.83
2023-01-04T21:11:23.783Z,5.47
2023-01-04T21:13:51.232Z,5.47
2023-01-04T21:16:17.678Z,4.90
2023-01-04T21:18:44.208Z,5.23
2023-01-04T21:21:14.988Z,5.37
2023-01-04T21:23:43.199Z,5.43
2023-01-04T21:26:12.145Z,5.57
2023-01-04T21:28:41.702Z,6.43
2023-01-04T21:31:12.281Z,4.93
2023-01-04T21:33:39.282Z,5.17
2023-01-04T21:36:09.630Z,5.97
2023-01-04T21:38:36.001Z,5.47
2023-01-04T21:41:06.962Z,5.57
2023-01-04T21:43:33.283Z,5.83
2023-01-04T21:46:03.818Z,5.23
2023-01-04T21:48:30.272Z,5.63
2023-01-04T21:50:58.714Z,4.97
2023-01-04T21:53:25.147Z,6.37
2023-01-04T21:56:01.451Z,5.13
2023-01-04T21:58:28.105Z,4.33
2023-01-04T22:00:54.983Z,5.37
2023-01-04T22:03:21.626Z,6.47
2023-01-04T22:05:47.947Z,4.90
2023-01-04T22:08:14.525Z,4.40
2023-01-04T22:10:41.007Z,5.20
2023-01-04T22:13:08.618Z,4.90
2023-01-04T22:15:38.755Z,4.27
2023-01-04T22:18:05.418Z,4.17
2023-01-04T22:20:31.734Z,5.00
2023-01-04T22:22:58.312Z,6.00
2023-01-04T22:25:24.772Z,5.57
2023-01-04T22:27:51.474Z,5.60
2023-01-04T22:30:17.826Z,5.73
2023-01-04T22:32:44.170Z,5.77
2023-01-04T22:35:10.605Z,4.60
2023-01-04T22:37:37.058Z,4.10
2023-01-04T22:40:03.468Z,3.97
2023-01-04T22:42:29.810Z,5.73
2023-01-04T22:44:56.097Z,4.40
2023-01-04T22:47:22.410Z,4.87
2023-01-04T22:49:48.727Z,4.10
2023-01-04T22:52:15.046Z,4.53
2023-01-04T22:54:41.360Z,5.07
2023-01-04T22:57:07.756Z,5.43
2023-01-04T22:59:34.116Z,4.37
2023-01-04T23:02:00.523Z,4.90
2023-01-04T23:04:27.019Z,3.77
2023-01-04T23:06:53.388Z,4.53
2023-01-04T23:09:19.781Z,4.70
2023-01-04T23:11:46.312Z,4.20
2023-01-04T23:14:14.184Z,4.80
2023-01-04T23:16:40.619Z,4.87
2023-01-04T23:19:07.365Z,3.67
2023-01-04T23:21:34.460Z,5.33
2023-01-04T23:24:01.290Z,5.23
2023-01-04T23:26:29.570Z,5.43
2023-01-04T23:28:56.253Z,4.40
2023-01-04T23:31:23.778Z,5.03
2023-01-04T23:33:54.573Z,4.00
2023-01-04T23:36:22.148Z,4.57
2023-01-04T23:38:50.394Z,4.30
2023-01-04T23:41:16.793Z,5.17
2023-01-04T23:43:43.161Z,5.27
2023-01-04T23:46:12.013Z,5.57
2023-01-04T23:48:38.434Z,5.53
2023-01-04T23:51:05.120Z,4.40
2023-01-04T23:53:31.508Z,4.60
2023-01-04T23:55:58.785Z,5.07
2023-01-04T23:58:27.389Z,4.73
